createdAt,value
2023-05-10T00:00:49.175Z,3.80
2023-05-10T00:03:15.952Z,4.00
2023-05-10T00:05:42.764Z,4.70
2023-05-10T00:08:09.458Z,2.80
2023-05-10T00:10:36.254Z,3.70
2023-05-10T00:13:03.037Z,2.20
2023-05-10T00:15:31.483Z,2.60
2023-05-10T00:17:58.217Z,3.60
2023-05-10T00:20:24.879Z,3.90
2023-05-10T00:22:52.050Z,3.90
2023-05-10T00:25:18.828Z,2.60
2023-05-10T00:27:45.555Z,2.60
2023-05-10T00:30:12.337Z,3.70
2023-05-10T00:32:39.083Z,5.80
2023-05-10T00:35:06.149Z,3.50
2023-05-10T00:37:33.121Z,5.90
2023-05-10T00:40:00.706Z,5.30
2023-05-10T00:42:27.453Z,3.10
2023-05-10T00:44:54.365Z,5.60
2023-05-10T00:47:21.143Z,5.50
2023-05-10T00:49:47.816Z,4.10
2023-05-10T00:52:14.570Z,5.70
2023-05-10T00:54:41.600Z,4.60
2023-05-10T00:57:08.287Z,5.80
2023-05-10T00:59:35.207Z,2.40
2023-05-10T01:02:02.671Z,4.60
2023-05-10T01:04:29.986Z,4.50
2023-05-10T01:06:58.185Z,3.40
2023-05-10T01:09:27.281Z,4.70
2023-05-10T01:11:54.331Z,5.30
2023-05-10T01:14:21.086Z,3.70
2023-05-10T01:16:48.552Z,5.10
2023-05-10T01:19:21.367Z,5.30
2023-05-10T01:21:54.378Z,4.70
2023-05-10T01:24:48.879Z,3.50
2023-05-10T01:27:18.655Z,4.90
2023-05-10T01:29:50.266Z,6.50
2023-05-10T01:32:27.854Z,4.10
2023-05-10T01:35:01.927Z,7.50
2023-05-10T01:37:42.411Z,5.00
2023-05-10T01:40:40.362Z,5.70
2023-05-10T01:43:13.947Z,5.90
2023-05-10T01:45:51.899Z,4.90
2023-05-10T01:48:18.844Z,4.60
2023-05-10T01:50:46.042Z,4.10
2023-05-10T01:53:13.880Z,3.90
2023-05-10T01:55:51.926Z,7.30
2023-05-10T01:58:24.677Z,5.50
2023-05-10T02:00:52.100Z,8.20
2023-05-10T02:03:19.714Z,5.70
2023-05-10T02:05:46.683Z,5.30
2023-05-10T02:08:13.736Z,5.60
2023-05-10T02:10:40.590Z,5.30
2023-05-10T02:13:08.500Z,5.20
2023-05-10T02:15:35.339Z,10.20
2023-05-10T02:18:02.035Z,8.10
2023-05-10T02:20:28.774Z,5.70
2023-05-10T02:22:56.158Z,4.40
2023-05-10T02:25:23.957Z,9.10
2023-05-10T02:27:50.634Z,6.50
2023-05-10T02:30:17.919Z,6.80
2023-05-10T02:32:44.842Z,5.10
2023-05-10T02:35:11.804Z,7.80
2023-05-10T02:37:38.792Z,7.20
2023-05-10T02:40:06.448Z,6.10
2023-05-10T02:42:34.210Z,4.80
2023-05-10T02:45:01.868Z,5.10
2023-05-10T02:47:29.551Z,6.40
2023-05-10T02:49:56.240Z,7.00
2023-05-10T02:52:25.769Z,6.80
2023-05-10T02:54:53.703Z,7.70
2023-05-10T02:57:24.290Z,5.90
2023-05-10T02:59:50.900Z,6.20
2023-05-10T03:02:17.568Z,12.00
2023-05-10T03:04:44.522Z,11.80
2023-05-10T03:07:11.190Z,9.10
2023-05-10T03:09:37.887Z,8.30
2023-05-10T03:12:04.550Z,3.40
2023-05-10T03:16:08.863Z,8.00
2023-05-10T03:19:02.965Z,12.80
2023-05-10T03:21:30.146Z,10.30
2023-05-10T03:24:04.145Z,10.50
2023-05-10T03:26:31.207Z,12.90
2023-05-10T03:29:03.684Z,7.60
2023-05-10T03:31:30.552Z,9.20
2023-05-10T03:33:57.361Z,6.90
2023-05-10T03:36:26.199Z,6.30
2023-05-10T03:38:53.067Z,7.90
2023-05-10T03:41:20.055Z,8.50
2023-05-10T03:43:47.811Z,4.90
2023-05-10T03:46:14.526Z,8.60
2023-05-10T03:48:41.744Z,5.90
2023-05-10T03:51:08.533Z,9.40
2023-05-10T03:53:35.402Z,9.90
2023-05-10T03:56:02.187Z,5.70
2023-05-10T03:58:28.806Z,9.30
2023-05-10T04:00:56.417Z,8.70
2023-05-10T04:03:23.183Z,6.10
2023-05-10T04:05:50.042Z,8.80
2023-05-10T04:08:17.527Z,4.70
2023-05-10T04:10:44.675Z,14.10
2023-05-10T04:13:12.318Z,9.60
2023-05-10T04:15:39.015Z,5.10
2023-05-10T04:18:07.968Z,6.20
2023-05-10T04:20:35.589Z,8.20
2023-05-10T04:23:02.290Z,5.00
2023-05-10T04:25:28.929Z,3.80
2023-05-10T04:27:55.595Z,4.10
2023-05-10T04:30:22.246Z,1.80
2023-05-10T04:32:49.019Z,4.10
2023-05-10T04:35:15.963Z,4.30
2023-05-10T04:37:42.689Z,2.10
2023-05-10T04:40:10.197Z,1.20
2023-05-10T04:42:36.948Z,1.40
2023-05-10T04:45:04.061Z,1.30
2023-05-10T04:47:30.869Z,2.40
2023-05-10T04:49:57.598Z,4.10
2023-05-10T04:52:24.219Z,1.10
2023-05-10T04:54:52.016Z,3.70
2023-05-10T04:57:18.799Z,2.30
2023-05-10T04:59:45.478Z,1.40
2023-05-10T05:02:12.334Z,1.20
2023-05-10T05:04:39.011Z,5.10
2023-05-10T05:07:05.830Z,4.40
2023-05-10T05:09:33.116Z,1.20
2023-05-10T05:11:59.811Z,2.30
2023-05-10T05:14:26.461Z,3.40
2023-05-10T05:16:53.752Z,2.50
2023-05-10T05:19:20.457Z,2.20
2023-05-10T05:21:47.137Z,1.80
2023-05-10T05:24:13.787Z,2.30
2023-05-10T05:26:40.470Z,0.80
2023-05-10T05:29:07.493Z,3.80
2023-05-10T05:31:34.410Z,2.30
2023-05-10T05:34:01.115Z,1.00
2023-05-10T05:36:27.788Z,1.00
2023-05-10T05:38:54.428Z,1.10
2023-05-10T05:41:22.532Z,1.50
2023-05-10T05:43:49.227Z,2.10
2023-05-10T05:46:15.986Z,2.70
2023-05-10T05:48:42.742Z,3.00
2023-05-10T05:51:09.519Z,1.20
2023-05-10T05:53:36.288Z,1.00
2023-05-10T05:56:03.340Z,2.10
2023-05-10T05:58:30.035Z,3.10
2023-05-10T06:00:56.656Z,2.80
2023-05-10T06:03:23.383Z,1.30
2023-05-10T06:05:50.382Z,2.50
2023-05-10T06:08:17.072Z,1.10
2023-05-10T06:10:44.154Z,1.20
2023-05-10T06:13:11.056Z,2.60
2023-05-10T06:15:37.952Z,1.30
2023-05-10T06:18:04.699Z,1.80
2023-05-10T06:20:32.636Z,2.20
2023-05-10T06:22:59.751Z,4.90
2023-05-10T06:25:26.469Z,2.10
2023-05-10T06:27:58.054Z,1.30
2023-05-10T06:30:28.462Z,1.90
2023-05-10T06:32:55.847Z,1.80
2023-05-10T06:35:22.585Z,2.80
2023-05-10T06:37:49.852Z,0.90
2023-05-10T06:40:16.968Z,2.50
2023-05-10T06:42:44.281Z,2.20
2023-05-10T06:45:11.650Z,2.50
2023-05-10T06:47:39.289Z,1.40
2023-05-10T06:50:07.002Z,4.50
2023-05-10T06:52:33.734Z,2.40
2023-05-10T06:55:01.301Z,1.00
2023-05-10T06:57:31.622Z,2.90
2023-05-10T07:00:02.593Z,0.80
2023-05-10T07:02:29.470Z,4.00
2023-05-10T07:04:56.507Z,1.80
2023-05-10T07:07:23.210Z,2.90
2023-05-10T07:09:51.008Z,4.10
2023-05-10T07:12:17.883Z,1.20
2023-05-10T07:14:44.663Z,0.80
2023-05-10T07:17:11.370Z,1.30
2023-05-10T07:19:38.131Z,0.50
2023-05-10T07:22:04.853Z,1.50
2023-05-10T07:24:32.364Z,1.50
2023-05-10T07:26:59.116Z,3.50
2023-05-10T07:29:25.992Z,1.10
2023-05-10T07:31:52.672Z,1.10
2023-05-10T07:34:19.468Z,1.30
2023-05-10T07:36:46.214Z,1.00
2023-05-10T07:39:18.651Z,0.50
2023-05-10T07:41:51.416Z,2.10
2023-05-10T07:44:20.228Z,3.80
2023-05-10T07:46:47.605Z,2.50
2023-05-10T07:49:14.474Z,1.80
2023-05-10T07:51:41.180Z,1.30
2023-05-10T07:54:07.989Z,1.10
2023-05-10T07:56:35.541Z,1.20
2023-05-10T07:59:04.747Z,0.70
2023-05-10T08:01:32.525Z,1.50
2023-05-10T08:03:59.266Z,0.60
2023-05-10T08:06:28.154Z,0.70
2023-05-10T08:08:55.224Z,1.00
2023-05-10T08:11:22.191Z,0.70
2023-05-10T08:13:49.752Z,1.80
2023-05-10T08:16:18.006Z,2.60
2023-05-10T08:18:46.044Z,0.50
2023-05-10T08:21:12.879Z,2.50
2023-05-10T08:23:39.625Z,0.70
2023-05-10T08:26:07.318Z,0.90
2023-05-10T08:28:34.030Z,1.80
2023-05-10T08:31:01.082Z,1.70
2023-05-10T08:33:28.687Z,0.80
2023-05-10T08:35:55.429Z,1.60
2023-05-10T08:38:22.056Z,3.00
2023-05-10T08:40:48.828Z,3.80
2023-05-10T08:43:18.765Z,2.50
2023-05-10T08:45:48.621Z,1.70
2023-05-10T08:48:15.456Z,1.40
2023-05-10T08:50:42.480Z,3.60
2023-05-10T08:53:13.946Z,0.70
2023-05-10T08:55:41.342Z,0.70
2023-05-10T08:58:08.056Z,0.70
2023-05-10T09:00:34.959Z,4.30
2023-05-10T09:03:02.291Z,2.60
2023-05-10T09:05:29.263Z,2.20
2023-05-10T09:07:56.022Z,0.90
2023-05-10T09:10:22.788Z,2.20
2023-05-10T09:12:49.544Z,1.70
2023-05-10T09:15:16.731Z,0.50
2023-05-10T09:17:43.966Z,0.50
2023-05-10T09:20:10.963Z,0.80
2023-05-10T09:22:38.736Z,2.80
2023-05-10T09:25:15.763Z,3.30
2023-05-10T09:27:46.190Z,2.10
2023-05-10T09:30:17.757Z,0.50
2023-05-10T09:32:46.085Z,0.40
2023-05-10T09:35:18.525Z,0.70
2023-05-10T09:37:47.212Z,1.30
2023-05-10T09:40:24.737Z,1.30
2023-05-10T09:42:53.290Z,1.00
2023-05-10T09:45:20.063Z,0.90
2023-05-10T09:47:47.119Z,0.40
2023-05-10T09:50:13.945Z,0.90
2023-05-10T09:53:00.211Z,2.50
2023-05-10T09:55:39.565Z,2.40
2023-05-10T09:58:10.408Z,1.20
2023-05-10T10:00:38.140Z,0.80
2023-05-10T10:03:05.474Z,0.40
2023-05-10T10:05:36.337Z,1.10
2023-05-10T10:08:06.299Z,1.70
2023-05-10T10:10:33.966Z,2.10
2023-05-10T10:13:00.895Z,1.80
2023-05-10T10:15:27.563Z,2.20
2023-05-10T10:17:54.364Z,0.60
2023-05-10T10:20:22.054Z,0.60
2023-05-10T10:22:48.900Z,3.20
2023-05-10T10:25:17.023Z,3.90
2023-05-10T10:27:53.248Z,3.50
2023-05-10T10:30:44.716Z,4.70
2023-05-10T10:33:27.691Z,1.20
2023-05-10T10:35:55.525Z,1.70
2023-05-10T10:38:23.005Z,3.40
2023-05-10T10:40:49.682Z,1.30
2023-05-10T10:43:23.295Z,1.60
2023-05-10T10:46:09.179Z,3.10
2023-05-10T10:48:36.074Z,2.80
2023-05-10T10:51:02.688Z,0.70
2023-05-10T10:53:29.828Z,0.70
2023-05-10T10:56:10.972Z,0.70
2023-05-10T10:58:39.054Z,4.30
2023-05-10T11:01:18.605Z,2.20
2023-05-10T11:04:04.333Z,0.80
2023-05-10T11:06:35.056Z,1.80
2023-05-10T11:09:08.668Z,1.10
2023-05-10T11:11:36.185Z,0.40
2023-05-10T11:14:07.338Z,0.30
2023-05-10T11:16:44.213Z,0.40
2023-05-10T11:19:17.790Z,0.60
2023-05-10T11:21:50.834Z,2.20
2023-05-10T11:24:23.210Z,2.20
2023-05-10T11:26:53.299Z,2.70
2023-05-10T11:29:20.310Z,1.20
2023-05-10T11:31:48.050Z,1.40
2023-05-10T11:34:32.240Z,3.80
2023-05-10T11:36:58.906Z,0.40
2023-05-10T11:39:32.920Z,0.60
2023-05-10T11:41:59.790Z,0.90
2023-05-10T11:44:33.199Z,3.30
2023-05-10T11:47:01.283Z,1.40
2023-05-10T11:49:27.938Z,0.70
2023-05-10T11:51:54.621Z,3.30
2023-05-10T11:54:21.434Z,2.40
2023-05-10T11:56:48.077Z,1.70
2023-05-10T11:59:15.188Z,0.50
2023-05-10T12:01:42.332Z,0.50
2023-05-10T12:04:09.242Z,2.20
2023-05-10T12:06:41.488Z,2.50
2023-05-10T12:09:09.235Z,1.90
2023-05-10T12:11:41.197Z,0.70
2023-05-10T12:14:10.612Z,0.30
2023-05-10T12:16:37.239Z,0.50
2023-05-10T12:19:04.048Z,1.10
2023-05-10T12:21:31.766Z,3.90
2023-05-10T12:24:05.835Z,5.10
2023-05-10T12:26:32.952Z,1.90
2023-05-10T12:29:19.085Z,0.70
2023-05-10T12:31:56.558Z,2.20
2023-05-10T12:34:34.067Z,0.50
2023-05-10T12:37:01.269Z,0.30
2023-05-10T12:39:42.108Z,0.90
2023-05-10T12:42:08.961Z,1.70
2023-05-10T12:44:35.601Z,5.20
2023-05-10T12:47:02.228Z,2.20
2023-05-10T12:49:28.953Z,1.10
2023-05-10T12:51:55.856Z,2.60
2023-05-10T12:54:22.674Z,1.70
2023-05-10T12:56:49.358Z,1.40
2023-05-10T12:59:16.037Z,0.70
2023-05-10T13:01:42.715Z,0.60
2023-05-10T13:04:09.505Z,0.70
2023-05-10T13:06:36.162Z,1.30
2023-05-10T13:09:03.431Z,1.20
2023-05-10T13:11:30.109Z,0.60
2023-05-10T13:13:56.922Z,0.90
2023-05-10T13:16:23.754Z,1.20
2023-05-10T13:18:50.605Z,0.30
2023-05-10T13:21:17.682Z,1.20
2023-05-10T13:23:44.601Z,0.40
2023-05-10T13:26:11.389Z,2.80
2023-05-10T13:28:39.782Z,0.70
2023-05-10T13:31:06.449Z,0.70
2023-05-10T13:33:33.128Z,2.20
2023-05-10T13:35:59.789Z,0.90
2023-05-10T13:38:26.795Z,1.10
2023-05-10T13:40:53.922Z,1.10
2023-05-10T13:43:20.877Z,3.70
2023-05-10T13:45:47.657Z,2.70
2023-05-10T13:48:14.349Z,2.20
2023-05-10T13:50:41.217Z,0.90
2023-05-10T13:53:07.998Z,1.50
2023-05-10T13:56:31.870Z,2.00
2023-05-10T13:59:01.629Z,1.80
2023-05-10T14:01:28.767Z,5.30
2023-05-10T14:03:55.874Z,1.80
2023-05-10T14:06:22.910Z,3.60
2023-05-10T14:08:49.964Z,2.00
2023-05-10T14:11:16.886Z,1.10
2023-05-10T14:13:43.774Z,2.60
2023-05-10T14:16:10.650Z,1.10
2023-05-10T14:18:37.610Z,0.80
2023-05-10T14:21:04.699Z,3.80
2023-05-10T14:23:31.468Z,1.70
2023-05-10T14:25:58.417Z,1.00
2023-05-10T14:28:26.034Z,2.30
2023-05-10T14:30:52.896Z,2.60
2023-05-10T14:33:20.242Z,1.00
2023-05-10T14:35:47.741Z,0.60
2023-05-10T14:38:15.020Z,0.40
2023-05-10T14:40:41.737Z,1.30
2023-05-10T14:43:08.398Z,3.30
2023-05-10T14:45:35.200Z,1.10
2023-05-10T14:48:05.558Z,1.30
2023-05-10T14:50:36.959Z,1.50
2023-05-10T14:53:38.438Z,0.40
2023-05-10T14:56:05.547Z,2.00
2023-05-10T14:58:34.104Z,0.60
2023-05-10T15:01:02.182Z,4.20
2023-05-10T15:03:29.956Z,0.80
2023-05-10T15:05:58.737Z,6.00
2023-05-10T15:08:25.904Z,1.00
2023-05-10T15:10:52.945Z,0.80
2023-05-10T15:13:19.894Z,2.30
2023-05-10T15:15:46.872Z,0.70
2023-05-10T15:18:13.745Z,0.60
2023-05-10T15:20:40.472Z,0.50
2023-05-10T15:23:07.154Z,0.80
2023-05-10T15:25:35.888Z,0.70
2023-05-10T15:28:03.839Z,3.00
2023-05-10T15:33:09.068Z,2.70
2023-05-10T15:35:37.403Z,2.00
2023-05-10T15:38:04.203Z,0.60
2023-05-10T15:40:30.730Z,0.90
2023-05-10T15:42:57.563Z,0.90
2023-05-10T15:45:24.117Z,1.90
2023-05-10T15:47:50.999Z,0.80
2023-05-10T15:50:17.632Z,0.60
2023-05-10T15:52:44.547Z,2.60
2023-05-10T15:55:14.037Z,0.90
2023-05-10T15:57:41.720Z,1.50
2023-05-10T16:00:09.070Z,0.80
2023-05-10T16:02:42.577Z,1.70
2023-05-10T16:05:09.415Z,0.50
2023-05-10T16:07:37.411Z,2.70
2023-05-10T16:10:05.892Z,0.90
2023-05-10T16:12:32.439Z,2.40
2023-05-10T16:14:58.983Z,0.80
2023-05-10T16:17:25.859Z,0.50
2023-05-10T16:19:52.762Z,0.40
2023-05-10T16:22:21.650Z,1.70
2023-05-10T16:24:48.172Z,1.40
2023-05-10T16:27:14.824Z,1.60
2023-05-10T16:29:41.971Z,2.30
2023-05-10T16:32:08.521Z,4.60
2023-05-10T16:34:35.158Z,2.60
2023-05-10T16:37:01.777Z,2.00
2023-05-10T16:39:28.329Z,2.10
2023-05-10T16:41:54.898Z,3.40
2023-05-10T16:44:23.578Z,2.30
2023-05-10T16:46:52.494Z,2.60
2023-05-10T16:49:19.122Z,2.20
2023-05-10T16:51:45.781Z,0.40
2023-05-10T16:54:12.254Z,1.50
2023-05-10T16:56:38.920Z,0.80
2023-05-10T16:59:05.469Z,8.30
2023-05-10T17:01:33.184Z,15.70
2023-05-10T17:03:59.719Z,9.80
2023-05-10T17:06:26.940Z,5.90
2023-05-10T17:08:53.384Z,2.20
2023-05-10T17:11:21.195Z,6.20
2023-05-10T17:13:47.846Z,2.10
2023-05-10T17:16:14.603Z,0.80
2023-05-10T17:18:42.000Z,6.20
2023-05-10T17:21:08.840Z,3.00
2023-05-10T17:23:35.804Z,1.70
2023-05-10T17:26:05.944Z,3.10
2023-05-10T17:28:32.598Z,3.70
2023-05-10T17:30:59.418Z,3.40
2023-05-10T17:33:25.900Z,6.50
2023-05-10T17:35:52.445Z,1.40
2023-05-10T17:38:19.363Z,2.50
2023-05-10T17:40:45.893Z,4.00
2023-05-10T17:43:12.415Z,1.00
2023-05-10T17:45:38.934Z,4.30
2023-05-10T17:48:05.557Z,1.10
2023-05-10T17:50:32.416Z,1.90
2023-05-10T17:52:59.260Z,6.40
2023-05-10T17:55:26.494Z,1.10
2023-05-10T17:57:53.193Z,2.00
2023-05-10T18:00:19.863Z,1.20
2023-05-10T18:02:46.349Z,3.20
2023-05-10T18:05:13.127Z,2.20
2023-05-10T18:07:40.428Z,2.30
2023-05-10T18:10:07.370Z,1.20
2023-05-10T18:12:33.898Z,3.90
2023-05-10T18:15:00.388Z,4.20
2023-05-10T18:17:27.129Z,2.70
2023-05-10T18:19:53.673Z,5.90
2023-05-10T18:22:20.542Z,1.70
2023-05-10T18:24:47.102Z,2.00
2023-05-10T18:27:13.557Z,2.90
2023-05-10T18:29:40.049Z,1.80
2023-05-10T18:32:06.787Z,2.30
2023-05-10T18:34:33.343Z,2.60
2023-05-10T18:36:59.965Z,2.10
2023-05-10T18:39:26.498Z,1.80
2023-05-10T18:41:53.044Z,6.50
2023-05-10T18:44:21.335Z,5.30
2023-05-10T18:46:47.949Z,6.80
2023-05-10T18:49:14.513Z,4.10
2023-05-10T18:51:41.018Z,6.00
2023-05-10T18:54:07.794Z,2.90
2023-05-10T18:56:34.325Z,5.00
2023-05-10T18:59:00.880Z,4.10
2023-05-10T19:01:27.483Z,5.40
2023-05-10T19:03:54.137Z,7.60
2023-05-10T19:06:20.601Z,5.50
2023-05-10T19:08:47.364Z,10.00
2023-05-10T19:11:14.055Z,7.80
2023-05-10T19:13:40.591Z,6.70
2023-05-10T19:16:14.518Z,3.70
2023-05-10T19:18:41.382Z,5.80
2023-05-10T19:21:10.133Z,9.50
2023-05-10T19:23:39.645Z,10.30
2023-05-10T19:26:06.120Z,5.50
2023-05-10T19:28:34.861Z,6.00
2023-05-10T19:31:01.471Z,4.30
2023-05-10T19:33:28.423Z,6.20
2023-05-10T19:35:54.970Z,5.50
2023-05-10T19:38:21.992Z,2.80
2023-05-10T19:40:57.907Z,4.00
2023-05-10T19:43:25.457Z,5.90
2023-05-10T19:45:52.140Z,2.40
2023-05-10T19:48:18.817Z,4.90
2023-05-10T19:50:45.651Z,2.70
2023-05-10T19:53:12.170Z,4.90
2023-05-10T19:55:39.555Z,5.40
2023-05-10T19:58:06.235Z,5.60
2023-05-10T20:00:32.756Z,5.00
2023-05-10T20:02:59.811Z,3.70
2023-05-10T20:05:26.409Z,3.70
2023-05-10T20:07:52.954Z,7.10
2023-05-10T20:10:21.110Z,2.50
2023-05-10T20:12:50.516Z,5.30
2023-05-10T20:15:21.449Z,5.30
2023-05-10T20:17:50.419Z,7.10
2023-05-10T20:20:17.090Z,3.20
2023-05-10T20:22:43.868Z,3.10
2023-05-10T20:25:10.863Z,4.50
2023-05-10T20:27:37.690Z,10.50
2023-05-10T20:30:05.074Z,7.50
2023-05-10T20:32:33.199Z,4.40
2023-05-10T20:34:59.863Z,3.90
2023-05-10T20:37:27.437Z,6.00
2023-05-10T20:39:54.132Z,4.90
2023-05-10T20:42:20.902Z,7.00
2023-05-10T20:44:47.336Z,10.20
2023-05-10T20:47:14.053Z,4.10
2023-05-10T20:49:40.496Z,6.20
2023-05-10T20:52:07.089Z,3.30
2023-05-10T20:54:33.520Z,5.00
2023-05-10T20:57:01.363Z,6.90
2023-05-10T20:59:28.202Z,4.40
2023-05-10T21:01:56.277Z,8.20
2023-05-10T21:04:22.754Z,2.40
2023-05-10T21:06:49.267Z,13.50
2023-05-10T21:09:16.814Z,5.20
2023-05-10T21:11:43.443Z,13.40
2023-05-10T21:14:10.114Z,8.00
2023-05-10T21:16:37.186Z,15.10
2023-05-10T21:19:03.732Z,6.40
2023-05-10T21:21:30.431Z,11.70
2023-05-10T21:23:56.876Z,8.90
2023-05-10T21:26:23.353Z,11.70
2023-05-10T21:28:49.907Z,7.30
2023-05-10T21:31:16.376Z,12.30
2023-05-10T21:33:42.940Z,11.50
2023-05-10T21:36:09.538Z,6.90
2023-05-10T21:38:36.414Z,8.10
2023-05-10T21:41:07.117Z,8.50
2023-05-10T21:43:33.731Z,12.30
2023-05-10T21:46:00.723Z,4.50
2023-05-10T21:48:27.196Z,14.90
2023-05-10T21:50:53.786Z,9.00
2023-05-10T21:53:21.616Z,4.60
2023-05-10T21:55:48.062Z,9.10
2023-05-10T21:58:15.196Z,6.80
2023-05-10T22:00:41.690Z,6.20
2023-05-10T22:03:08.262Z,8.60
2023-05-10T22:05:35.119Z,9.00
2023-05-10T22:08:01.600Z,8.30
2023-05-10T22:10:28.862Z,11.50
2023-05-10T22:12:56.586Z,9.80
2023-05-10T22:15:23.042Z,6.80
2023-05-10T22:17:49.592Z,9.50
2023-05-10T22:20:16.370Z,7.50
2023-05-10T22:22:43.923Z,8.40
2023-05-10T22:25:10.481Z,6.50
2023-05-10T22:27:37.254Z,11.00
2023-05-10T22:30:04.599Z,5.00
2023-05-10T22:32:31.255Z,11.10
2023-05-10T22:34:58.071Z,5.90
2023-05-10T22:37:24.607Z,10.80
2023-05-10T22:39:51.820Z,6.10
2023-05-10T22:42:18.344Z,7.10
2023-05-10T22:44:44.855Z,10.80
2023-05-10T22:47:12.037Z,5.50
2023-05-10T22:49:38.483Z,9.50
2023-05-10T22:52:04.982Z,5.50
2023-05-10T22:54:31.811Z,4.60
2023-05-10T22:56:59.301Z,8.60
2023-05-10T22:59:27.632Z,6.20
2023-05-10T23:01:54.169Z,7.70
2023-05-10T23:04:20.756Z,6.80
2023-05-10T23:06:47.409Z,9.80
2023-05-10T23:09:13.857Z,6.20
2023-05-10T23:11:40.511Z,7.60
2023-05-10T23:14:07.230Z,5.90
2023-05-10T23:16:33.794Z,8.30
2023-05-10T23:19:00.635Z,10.70
2023-05-10T23:21:28.761Z,7.80
2023-05-10T23:23:56.508Z,13.30
2023-05-10T23:26:23.150Z,11.10
2023-05-10T23:28:49.920Z,7.80
2023-05-10T23:31:16.560Z,9.10
2023-05-10T23:33:43.145Z,7.40
2023-05-10T23:36:09.605Z,11.00
2023-05-10T23:38:37.370Z,8.70
2023-05-10T23:41:04.020Z,12.40
2023-05-10T23:43:31.013Z,8.50
2023-05-10T23:45:57.709Z,13.70
2023-05-10T23:48:24.281Z,13.00
2023-05-10T23:50:51.057Z,11.50
2023-05-10T23:53:17.721Z,14.70
2023-05-10T23:55:44.533Z,11.80
2023-05-10T23:58:10.974Z,10.50
